Pryor, MT (59066)

6:19 PM MST on February 13, 2016 (GMT -0700)
Briarwood | | Change Station
CLOSE
Current Station
Personal Weather Station
Location: Billings, MT
Elevation: 3366 ft
Nearby Weather Stations

Elev 3366 ft 45.72 °N, 108.50 °W | Updated 6 minutes ago

Clear
Clear
42.1 °F
Feels Like 37 °F
N
7.8
Wind Variable Wind from NW

Today
High -- | Low -- °F
--% Chance of Precip.
Yesterday
High -- | Low -- °F
Precip. -- in
Pressure 30.03 in
Visibility 10.0 miles
Clouds Few 7000 ft
Few 18000 ft
Windchill 37 °F
Dew Point 22 °F
Humidity 45%
Rainfall 0.00 in
Snow Depth Not available.
7:19 AM 5:37 PM
Waxing Crescent, 36% visible
METAR KBIL 140053Z 29019G28KT 10SM FEW070 FEW180 07/M09 A2999 RMK AO2 PK WND 29033/2358 SLP169 VIRGA SHRASN DSNT NE-E T00671089 $
Pressure 30.03 in
Visibility 10.0 miles
Clouds Few 7000 ft
Few 18000 ft
Windchill 37 °F
Dew Point 22 °F
Humidity 45%
Rainfall 0.00 in
Snow Depth Not available.
7:19 AM 5:37 PM
Waxing Crescent, 36% visible
METAR KBIL 140053Z 29019G28KT 10SM FEW070 FEW180 07/M09 A2999 RMK AO2 PK WND 29033/2358 SLP169 VIRGA SHRASN DSNT NE-E T00671089 $

10-Day Weather Forecast

Almanac

Astronomy

Feb. 13, 2016 Rise Set
Actual Time
Civil Twilight
Nautical Twilight
Astronomical Twilight
Moon
Length of Visible Light
Length of Day
Tomorrow will be .
, % of the Moon is Illuminated

Today's Extremes

State Highs State Lows

Community

WunderPhotos

Upload Photos

1,892,723 photos uploaded!

WunderBlog® & News

Nearby

Air Quality

  Air Quality AQ Index Pollutant
Not available.

Snow Depth

Station Depth Elevation

Earthquake Activity

City Distance Mag. Time & Date
Minimum magnitude displayed is 2.5.

Coastal Water Temperatures

Place Temperature

Stations

Nearby Weather Stations

Station Location Temp. Windchill Dew Point Humidity Wind Precip. Elev Updated Type
                   

Watches & Warnings

There are currently no watches in effect.